createdAt,value
2022-09-13T00:00:55.569Z,8.20
2022-09-13T00:03:25.217Z,8.20
2022-09-13T00:05:53.715Z,8.10
2022-09-13T00:08:22.024Z,8.10
2022-09-13T00:10:50.310Z,8.00
2022-09-13T00:13:18.973Z,8.00
2022-09-13T00:15:49.021Z,8.00
2022-09-13T00:18:18.722Z,8.00
2022-09-13T00:20:48.134Z,8.00
2022-09-13T00:23:16.233Z,7.90
2022-09-13T00:25:44.296Z,7.90
2022-09-13T00:28:12.393Z,7.90
2022-09-13T00:30:40.478Z,7.70
2022-09-13T00:33:08.934Z,7.60
2022-09-13T00:35:37.082Z,7.50
2022-09-13T00:38:06.556Z,7.50
2022-09-13T00:40:38.818Z,7.50
2022-09-13T00:43:13.297Z,7.50
2022-09-13T00:45:41.511Z,7.50
2022-09-13T00:48:15.217Z,7.50
2022-09-13T00:50:45.793Z,7.50
2022-09-13T00:53:20.782Z,7.50
2022-09-13T00:55:53.425Z,7.40
2022-09-13T00:58:24.384Z,7.40
2022-09-13T01:00:54.462Z,7.30
2022-09-13T01:03:25.730Z,7.30
2022-09-13T01:05:58.090Z,7.30
2022-09-13T01:08:29.367Z,7.40
2022-09-13T01:11:00.015Z,7.40
2022-09-13T01:13:31.977Z,7.40
2022-09-13T01:16:00.647Z,7.40
2022-09-13T01:18:28.772Z,7.30
2022-09-13T01:21:25.227Z,7.30
2022-09-13T01:24:28.402Z,7.30
2022-09-13T01:27:24.893Z,7.30
2022-09-13T01:30:15.945Z,7.30
2022-09-13T01:33:18.481Z,7.30
2022-09-13T01:35:58.096Z,7.30
2022-09-13T01:38:49.519Z,7.30
2022-09-13T01:41:33.678Z,7.20
2022-09-13T01:44:11.675Z,7.10
2022-09-13T01:46:49.708Z,7.00
2022-09-13T01:49:22.286Z,6.80
2022-09-13T01:51:55.490Z,6.90
2022-09-13T01:54:34.190Z,6.80
2022-09-13T01:57:05.538Z,6.80
2022-09-13T01:59:44.482Z,6.80
2022-09-13T02:02:21.668Z,6.80
2022-09-13T02:04:54.810Z,6.80
2022-09-13T02:07:27.461Z,6.80
2022-09-13T02:10:03.565Z,6.80
2022-09-13T02:12:35.782Z,6.80
2022-09-13T02:15:09.671Z,6.80
2022-09-13T02:17:41.725Z,6.70
2022-09-13T02:20:14.145Z,6.70
2022-09-13T02:22:49.438Z,6.60
2022-09-13T02:25:20.474Z,6.70
2022-09-13T02:27:50.553Z,6.60
2022-09-13T02:30:20.443Z,6.60
2022-09-13T02:32:55.342Z,6.50
2022-09-13T02:35:29.492Z,6.50
2022-09-13T02:38:03.535Z,6.50
2022-09-13T02:40:38.541Z,6.60
2022-09-13T02:43:09.855Z,6.60
2022-09-13T02:45:46.840Z,6.60
2022-09-13T02:48:22.208Z,6.70
2022-09-13T02:51:00.290Z,6.60
2022-09-13T02:53:37.028Z,6.50
2022-09-13T02:56:17.008Z,6.50
2022-09-13T02:58:48.181Z,6.50
2022-09-13T03:01:16.573Z,6.40
2022-09-13T03:03:46.316Z,6.50
2022-09-13T03:06:14.863Z,6.50
2022-09-13T03:08:42.993Z,6.50
2022-09-13T03:11:21.233Z,6.50
2022-09-13T03:14:03.934Z,6.50
2022-09-13T03:16:44.481Z,6.50
2022-09-13T03:19:32.695Z,6.50
2022-09-13T03:22:15.390Z,6.40
2022-09-13T03:24:51.384Z,6.50
2022-09-13T03:27:29.547Z,6.50
2022-09-13T03:30:03.909Z,6.50
2022-09-13T03:32:43.019Z,6.50
2022-09-13T03:35:19.564Z,6.60
2022-09-13T03:37:55.981Z,6.60
2022-09-13T03:40:30.181Z,6.60
2022-09-13T03:43:05.409Z,6.50
2022-09-13T03:45:38.629Z,6.50
2022-09-13T03:48:08.395Z,6.50
2022-09-13T03:50:38.709Z,6.50
2022-09-13T03:53:10.307Z,6.50
2022-09-13T03:55:41.623Z,6.40
2022-09-13T03:58:12.817Z,6.40
2022-09-13T04:00:41.298Z,6.40
2022-09-13T04:03:10.108Z,6.40
2022-09-13T04:05:39.973Z,6.40
2022-09-13T04:08:08.906Z,6.40
2022-09-13T04:10:38.657Z,6.40
2022-09-13T04:13:06.798Z,6.40
2022-09-13T04:15:34.910Z,6.40
2022-09-13T04:18:03.001Z,6.40
2022-09-13T04:20:31.324Z,6.50
2022-09-13T04:23:00.795Z,6.40
2022-09-13T04:25:29.028Z,6.40
2022-09-13T04:27:59.913Z,6.50
2022-09-13T04:30:28.546Z,6.50
2022-09-13T04:32:59.629Z,6.60
2022-09-13T04:35:28.903Z,6.60
2022-09-13T04:37:57.889Z,6.60
2022-09-13T04:40:27.513Z,6.70
2022-09-13T04:42:55.723Z,6.70
2022-09-13T04:45:24.064Z,6.80
2022-09-13T04:47:53.894Z,6.90
2022-09-13T04:50:22.818Z,6.90
2022-09-13T04:52:51.963Z,6.90
2022-09-13T04:55:20.089Z,7.00
2022-09-13T04:57:53.619Z,7.10
2022-09-13T05:00:21.871Z,7.10
2022-09-13T05:02:50.126Z,7.20
2022-09-13T05:05:18.327Z,7.50
2022-09-13T05:07:46.468Z,7.40
2022-09-13T05:10:18.932Z,7.50
2022-09-13T05:12:49.099Z,7.60
2022-09-13T05:15:17.742Z,7.60
2022-09-13T05:17:45.886Z,7.70
2022-09-13T05:20:14.032Z,7.80
2022-09-13T05:22:42.145Z,7.80
2022-09-13T05:25:10.735Z,7.60
2022-09-13T05:27:38.830Z,7.80
2022-09-13T05:30:09.285Z,7.90
2022-09-13T05:32:37.502Z,7.80
2022-09-13T05:35:06.180Z,7.90
2022-09-13T05:37:34.296Z,7.90
2022-09-13T05:40:17.831Z,7.90
2022-09-13T05:42:45.960Z,7.90
2022-09-13T05:45:15.564Z,8.10
2022-09-13T05:47:43.692Z,8.10
2022-09-13T05:50:22.950Z,8.30
2022-09-13T05:52:59.879Z,8.30
2022-09-13T05:55:27.971Z,8.40
2022-09-13T05:57:56.080Z,8.60
2022-09-13T06:00:26.030Z,8.60
2022-09-13T06:02:54.179Z,8.60
2022-09-13T06:05:22.315Z,8.70
2022-09-13T06:07:50.386Z,8.80
2022-09-13T06:10:18.619Z,8.90
2022-09-13T06:12:47.103Z,9.00
2022-09-13T06:15:15.641Z,9.20
2022-09-13T06:17:45.134Z,9.20
2022-09-13T06:20:13.257Z,9.40
2022-09-13T06:22:41.355Z,9.40
2022-09-13T06:25:10.774Z,9.50
2022-09-13T06:27:38.868Z,9.60
2022-09-13T06:30:08.933Z,9.70
2022-09-13T06:32:37.378Z,9.70
2022-09-13T06:35:08.068Z,9.80
2022-09-13T06:37:36.169Z,9.90
2022-09-13T06:40:06.460Z,10.00
2022-09-13T06:42:35.667Z,10.00
2022-09-13T06:45:04.124Z,10.10
2022-09-13T06:47:32.308Z,10.20
2022-09-13T06:50:00.949Z,10.30
2022-09-13T06:52:30.508Z,10.40
2022-09-13T06:54:58.900Z,10.50
2022-09-13T06:57:30.853Z,10.60
2022-09-13T06:59:59.080Z,10.80
2022-09-13T07:02:27.273Z,10.80
2022-09-13T07:04:55.406Z,11.00
2022-09-13T07:07:23.513Z,11.20
2022-09-13T07:09:53.006Z,11.30
2022-09-13T07:12:21.184Z,11.50
2022-09-13T07:14:49.273Z,11.60
2022-09-13T07:17:17.439Z,11.70
2022-09-13T07:19:45.572Z,11.80
2022-09-13T07:22:13.653Z,11.90
2022-09-13T07:24:41.770Z,12.10
2022-09-13T07:27:11.369Z,12.20
2022-09-13T07:29:39.496Z,12.40
2022-09-13T07:32:07.634Z,12.50
2022-09-13T07:34:35.759Z,12.70
2022-09-13T07:37:03.890Z,12.80
2022-09-13T07:39:32.052Z,13.00
2022-09-13T07:42:00.146Z,13.10
2022-09-13T07:44:29.593Z,13.20
2022-09-13T07:46:57.671Z,13.30
2022-09-13T07:49:25.869Z,13.40
2022-09-13T07:51:54.001Z,13.60
2022-09-13T07:54:22.231Z,13.70
2022-09-13T07:56:51.863Z,13.80
2022-09-13T07:59:20.647Z,14.00
2022-09-13T08:01:52.058Z,14.10
2022-09-13T08:04:24.874Z,14.30
2022-09-13T08:06:53.054Z,14.50
2022-09-13T08:09:21.218Z,14.60
2022-09-13T08:11:52.686Z,14.70
2022-09-13T08:14:22.934Z,14.80
2022-09-13T08:16:55.615Z,15.00
2022-09-13T08:19:23.775Z,15.10
2022-09-13T08:21:51.856Z,15.20
2022-09-13T08:24:22.477Z,15.30
2022-09-13T08:26:52.048Z,15.40
2022-09-13T08:29:20.602Z,15.50
2022-09-13T08:31:48.814Z,15.50
2022-09-13T08:34:21.241Z,15.60
2022-09-13T08:36:49.385Z,15.70
2022-09-13T08:39:17.592Z,15.90
2022-09-13T08:42:12.933Z,16.10
2022-09-13T08:44:47.198Z,16.30
2022-09-13T08:54:25.847Z,16.80
2022-09-13T08:57:01.083Z,16.80
2022-09-13T08:59:46.443Z,17.00
2022-09-13T09:02:32.014Z,17.20
2022-09-13T09:05:06.875Z,17.20
2022-09-13T09:07:41.647Z,17.30
2022-09-13T09:10:17.028Z,17.30
2022-09-13T09:12:48.358Z,17.40
2022-09-13T09:15:21.131Z,17.40
2022-09-13T09:17:56.814Z,17.50
2022-09-13T09:20:31.687Z,17.50
2022-09-13T09:23:06.760Z,17.50
2022-09-13T09:25:35.827Z,17.70
2022-09-13T09:28:13.355Z,18.00
2022-09-13T09:30:47.182Z,18.20
2022-09-13T09:33:29.676Z,18.20
2022-09-13T09:36:05.681Z,18.30
2022-09-13T09:38:39.770Z,18.40
2022-09-13T09:41:22.744Z,18.40
2022-09-13T09:43:57.667Z,18.50
2022-09-13T09:46:32.013Z,18.50
2022-09-13T09:49:28.715Z,18.70
2022-09-13T09:52:00.341Z,19.00
2022-09-13T09:54:31.572Z,19.30
2022-09-13T09:56:59.975Z,19.50
2022-09-13T09:59:31.205Z,19.70
2022-09-13T10:02:00.336Z,19.90
2022-09-13T10:04:30.067Z,19.90
2022-09-13T10:07:19.917Z,19.80
2022-09-13T10:10:01.370Z,19.80
2022-09-13T10:12:34.031Z,19.50
2022-09-13T10:15:08.299Z,19.40
2022-09-13T10:17:37.063Z,19.30
2022-09-13T10:20:23.418Z,19.20
2022-09-13T10:23:17.729Z,19.20
2022-09-13T10:25:58.721Z,19.20
2022-09-13T10:28:27.633Z,19.30
2022-09-13T10:30:59.905Z,19.30
2022-09-13T10:33:31.576Z,19.20
2022-09-13T10:36:04.404Z,19.30
2022-09-13T10:38:35.132Z,19.40
2022-09-13T10:41:07.501Z,19.60
2022-09-13T10:43:36.416Z,19.90
2022-09-13T10:46:06.994Z,20.40
2022-09-13T10:48:47.641Z,20.70
2022-09-13T10:51:34.337Z,20.80
2022-09-13T10:54:16.262Z,20.70
2022-09-13T10:56:46.273Z,20.70
2022-09-13T10:59:22.602Z,20.70
2022-09-13T11:02:23.702Z,20.50
2022-09-13T11:05:06.424Z,20.40
2022-09-13T11:07:57.669Z,20.50
2022-09-13T11:10:32.688Z,20.50
2022-09-13T11:13:09.005Z,20.60
2022-09-13T11:15:50.963Z,20.40
2022-09-13T11:18:39.177Z,20.30
2022-09-13T11:21:19.615Z,20.10
2022-09-13T11:24:11.601Z,19.90
2022-09-13T11:26:58.799Z,19.80
2022-09-13T11:29:43.332Z,19.70
2022-09-13T11:32:25.155Z,19.90
2022-09-13T11:35:09.330Z,20.10
2022-09-13T11:37:51.566Z,20.10
2022-09-13T11:40:33.671Z,20.10
2022-09-13T11:43:17.758Z,20.00
2022-09-13T11:45:58.826Z,20.00
2022-09-13T11:48:44.339Z,19.90
2022-09-13T11:51:25.194Z,20.00
2022-09-13T11:54:05.596Z,20.00
2022-09-13T11:56:37.847Z,19.90
2022-09-13T11:59:15.813Z,19.90
2022-09-13T12:01:50.551Z,20.10
2022-09-13T12:04:25.613Z,20.20
2022-09-13T12:06:58.749Z,20.30
2022-09-13T12:09:30.588Z,20.30
2022-09-13T12:12:05.069Z,20.30
2022-09-13T12:14:43.770Z,20.20
2022-09-13T12:17:25.646Z,20.00
2022-09-13T12:19:57.612Z,19.80
2022-09-13T12:22:31.027Z,19.70
2022-09-13T12:25:03.845Z,19.60
2022-09-13T12:27:40.105Z,19.50
2022-09-13T12:30:16.246Z,19.40
2022-09-13T12:32:47.457Z,19.30
2022-09-13T12:35:25.675Z,19.20
2022-09-13T12:38:11.683Z,19.10
2022-09-13T12:40:54.977Z,18.90
2022-09-13T12:43:53.497Z,18.90
2022-09-13T12:46:36.739Z,18.90
2022-09-13T12:49:31.103Z,18.90
2022-09-13T12:52:17.387Z,18.90
2022-09-13T12:55:46.504Z,18.90
2022-09-13T12:58:42.954Z,18.90
2022-09-13T13:01:16.525Z,18.80
2022-09-13T13:03:51.557Z,18.70
2022-09-13T13:06:29.558Z,18.70
2022-09-13T13:09:00.234Z,18.60
2022-09-13T13:11:31.409Z,18.50
2022-09-13T13:14:03.514Z,18.50
2022-09-13T13:16:34.338Z,18.40
2022-09-13T13:19:03.542Z,18.30
2022-09-13T13:21:39.190Z,18.20
2022-09-13T13:24:39.419Z,18.10
2022-09-13T13:27:48.698Z,18.00
2022-09-13T13:30:55.245Z,17.90
2022-09-13T13:33:27.748Z,18.00
2022-09-13T13:35:56.298Z,18.00
2022-09-13T13:38:47.718Z,18.10
2022-09-13T13:41:40.666Z,18.10
2022-09-13T13:44:59.256Z,18.20
2022-09-13T13:48:11.008Z,18.30
2022-09-13T13:51:20.357Z,18.30
2022-09-13T13:53:53.898Z,18.30
2022-09-13T13:56:48.533Z,18.20
2022-09-13T13:59:23.095Z,18.20
2022-09-13T14:01:57.778Z,18.20
2022-09-13T14:05:01.094Z,18.20
2022-09-13T14:07:54.169Z,18.30
2022-09-13T14:10:27.652Z,18.30
2022-09-13T14:13:13.909Z,18.30
2022-09-13T14:15:54.610Z,18.40
2022-09-13T14:18:52.316Z,18.40
2022-09-13T14:21:26.714Z,18.40
2022-09-13T14:24:10.687Z,18.30
2022-09-13T14:26:41.143Z,18.30
2022-09-13T14:29:10.259Z,18.30
2022-09-13T14:31:39.091Z,18.30
2022-09-13T14:34:07.272Z,18.40
2022-09-13T14:36:36.243Z,18.40
2022-09-13T14:39:04.536Z,18.50
2022-09-13T14:41:34.710Z,18.50
2022-09-13T14:44:28.438Z,18.50
2022-09-13T14:47:02.773Z,18.40
2022-09-13T14:49:36.399Z,18.40
2022-09-13T14:52:10.119Z,18.30
2022-09-13T14:54:41.715Z,18.30
2022-09-13T14:57:18.501Z,18.30
2022-09-13T14:59:52.067Z,18.30
2022-09-13T15:02:22.318Z,18.30
2022-09-13T15:04:53.210Z,18.30
2022-09-13T15:07:28.758Z,18.20
2022-09-13T15:09:59.657Z,18.20
2022-09-13T15:12:29.967Z,18.20
2022-09-13T15:15:32.778Z,18.10
2022-09-13T15:18:02.950Z,18.10
2022-09-13T15:20:45.113Z,18.00
2022-09-13T15:23:16.657Z,18.00
2022-09-13T15:25:52.282Z,18.00
2022-09-13T15:28:26.850Z,17.90
2022-09-13T15:30:59.003Z,17.80
2022-09-13T15:33:30.909Z,17.80
2022-09-13T15:36:28.656Z,17.80
2022-09-13T15:39:02.319Z,17.70
2022-09-13T15:41:32.634Z,17.70
2022-09-13T15:44:02.325Z,17.60
2022-09-13T15:46:32.617Z,17.50
2022-09-13T15:49:03.229Z,17.50
2022-09-13T15:51:33.469Z,17.40
2022-09-13T15:54:11.983Z,17.30
2022-09-13T15:56:43.470Z,17.30
2022-09-13T15:59:15.307Z,17.30
2022-09-13T16:01:45.803Z,17.20
2022-09-13T16:04:14.204Z,17.20
2022-09-13T16:06:42.844Z,17.10
2022-09-13T16:09:19.206Z,17.10
2022-09-13T16:11:48.315Z,17.00
2022-09-13T16:14:17.009Z,17.00
2022-09-13T16:16:47.080Z,16.90
2022-09-13T16:19:17.186Z,17.00
2022-09-13T16:21:45.903Z,16.90
2022-09-13T16:24:14.124Z,16.90
2022-09-13T16:26:43.121Z,16.80
2022-09-13T16:29:12.661Z,16.80
2022-09-13T16:31:41.103Z,16.80
2022-09-13T16:34:10.779Z,16.70
2022-09-13T16:36:38.888Z,16.70
2022-09-13T16:39:07.213Z,16.70
2022-09-13T16:41:35.479Z,16.70
2022-09-13T16:44:05.099Z,16.70
2022-09-13T16:46:33.662Z,16.70
2022-09-13T16:49:01.910Z,16.70
2022-09-13T16:51:31.598Z,16.70
2022-09-13T16:54:00.540Z,16.70
2022-09-13T16:56:30.242Z,16.70
2022-09-13T16:58:58.470Z,16.60
2022-09-13T17:01:28.616Z,16.60
2022-09-13T17:03:57.434Z,16.60
2022-09-13T17:06:27.565Z,16.60
2022-09-13T17:09:01.180Z,16.60
2022-09-13T17:11:32.656Z,16.50
2022-09-13T17:14:00.940Z,16.50
2022-09-13T17:16:31.361Z,16.50
2022-09-13T17:19:02.134Z,16.50
2022-09-13T17:21:31.076Z,16.50
2022-09-13T17:24:02.208Z,16.50
2022-09-13T17:26:30.646Z,16.50
2022-09-13T17:28:58.966Z,16.50
2022-09-13T17:31:27.156Z,16.50
2022-09-13T17:33:58.017Z,16.50
2022-09-13T17:36:26.196Z,16.50
2022-09-13T17:38:57.218Z,16.40
2022-09-13T17:41:27.654Z,16.40
2022-09-13T17:43:56.082Z,16.40
2022-09-13T17:46:27.757Z,16.40
2022-09-13T17:48:58.338Z,16.40
2022-09-13T17:51:28.150Z,16.40
2022-09-13T17:53:58.728Z,16.30
2022-09-13T17:56:30.753Z,16.40
2022-09-13T17:59:09.321Z,16.40
2022-09-13T18:01:39.972Z,16.40
2022-09-13T18:04:09.699Z,16.40
2022-09-13T18:06:40.647Z,16.30
2022-09-13T18:09:09.925Z,16.30
2022-09-13T18:11:40.045Z,16.30
2022-09-13T18:14:08.669Z,16.30
2022-09-13T18:16:38.076Z,16.30
2022-09-13T18:19:06.523Z,16.30
2022-09-13T18:21:34.812Z,16.30
2022-09-13T18:24:03.540Z,16.30
2022-09-13T18:26:32.534Z,16.30
2022-09-13T18:29:04.779Z,16.30
2022-09-13T18:31:34.859Z,16.30
2022-09-13T18:34:05.372Z,16.30
2022-09-13T18:36:36.576Z,16.30
2022-09-13T18:39:06.460Z,16.30
2022-09-13T18:41:37.310Z,16.30
2022-09-13T18:44:06.886Z,16.20
2022-09-13T18:46:35.944Z,16.20
2022-09-13T18:49:05.181Z,16.30
2022-09-13T18:51:35.026Z,16.20
2022-09-13T18:54:04.599Z,16.30
2022-09-13T18:56:33.868Z,16.20
2022-09-13T18:59:04.034Z,16.20
2022-09-13T19:01:35.123Z,16.20
2022-09-13T19:04:05.436Z,16.20
2022-09-13T19:06:35.536Z,16.20
2022-09-13T19:09:07.433Z,16.20
2022-09-13T19:11:52.281Z,16.20
2022-09-13T19:14:23.907Z,16.20
2022-09-13T19:16:54.966Z,16.10
2022-09-13T19:19:23.181Z,16.10
2022-09-13T19:21:51.281Z,16.10
2022-09-13T19:24:20.869Z,16.10
2022-09-13T19:26:51.873Z,16.10
2022-09-13T19:29:23.114Z,16.10
2022-09-13T19:31:55.835Z,16.10
2022-09-13T19:34:24.701Z,16.10
2022-09-13T19:36:58.225Z,16.10
2022-09-13T19:39:30.054Z,16.00
2022-09-13T19:41:59.921Z,16.00
2022-09-13T19:44:28.585Z,16.00
2022-09-13T19:49:49.620Z,16.00
2022-09-13T19:52:17.995Z,16.00
2022-09-13T19:54:46.195Z,16.00
2022-09-13T19:57:14.368Z,16.00
2022-09-13T19:59:42.492Z,16.00
2022-09-13T20:02:12.276Z,15.90
2022-09-13T20:04:41.610Z,16.00
2022-09-13T20:07:12.307Z,15.90
2022-09-13T20:09:42.343Z,15.90
2022-09-13T20:12:11.415Z,15.90
2022-09-13T20:14:39.634Z,15.90
2022-09-13T20:17:07.961Z,15.90
2022-09-13T20:19:41.883Z,15.90
2022-09-13T20:22:11.941Z,15.90
2022-09-13T20:24:40.306Z,15.90
2022-09-13T20:27:08.397Z,15.90
2022-09-13T20:29:36.525Z,15.90
2022-09-13T20:32:04.731Z,15.90
2022-09-13T20:34:32.939Z,15.90
2022-09-13T20:37:02.451Z,15.90
2022-09-13T20:39:30.732Z,15.90
2022-09-13T20:41:59.018Z,15.90
2022-09-13T20:44:27.516Z,15.90
2022-09-13T20:46:55.644Z,15.90
2022-09-13T20:49:23.771Z,16.00
2022-09-13T20:51:52.161Z,16.00
2022-09-13T20:54:21.689Z,16.00
2022-09-13T20:56:49.851Z,16.00
2022-09-13T20:59:18.110Z,16.00
2022-09-13T21:01:46.433Z,16.00
2022-09-13T21:04:14.683Z,16.00
2022-09-13T21:06:57.673Z,16.00
2022-09-13T21:09:27.411Z,16.00
2022-09-13T21:11:55.922Z,16.00
2022-09-13T21:14:24.091Z,15.90
2022-09-13T21:16:52.218Z,15.90
2022-09-13T21:19:20.530Z,15.90
2022-09-13T21:21:48.687Z,15.90
2022-09-13T21:24:16.936Z,15.90
2022-09-13T21:26:46.423Z,15.80
2022-09-13T21:29:14.813Z,15.80
2022-09-13T21:31:42.989Z,15.80
2022-09-13T21:34:15.919Z,15.80
2022-09-13T21:36:45.261Z,15.80
2022-09-13T21:39:13.614Z,15.70
2022-09-13T21:41:42.201Z,15.70
2022-09-13T21:44:12.096Z,15.60
2022-09-13T21:46:41.341Z,15.60
2022-09-13T21:49:11.470Z,15.60
2022-09-13T21:51:41.333Z,15.60
2022-09-13T21:54:12.356Z,15.50
2022-09-13T21:56:42.485Z,15.50
2022-09-13T21:59:15.537Z,15.50
2022-09-13T22:01:46.749Z,15.40
2022-09-13T22:04:18.250Z,15.40
2022-09-13T22:06:47.831Z,15.40
2022-09-13T22:09:16.789Z,15.40
2022-09-13T22:11:47.284Z,15.30
2022-09-13T22:14:18.609Z,15.30
2022-09-13T22:16:47.670Z,15.30
2022-09-13T22:19:17.784Z,15.30
2022-09-13T22:21:49.005Z,15.20
2022-09-13T22:24:19.193Z,15.20
2022-09-13T22:26:49.870Z,15.20
2022-09-13T22:29:20.472Z,15.20
2022-09-13T22:31:50.498Z,15.20
2022-09-13T22:34:20.875Z,15.10
2022-09-13T22:36:49.254Z,15.10
2022-09-13T22:39:18.539Z,15.10
2022-09-13T22:41:47.113Z,15.10
2022-09-13T22:44:15.841Z,15.10
2022-09-13T22:46:47.234Z,15.10
2022-09-13T22:49:17.515Z,15.10
2022-09-13T22:51:46.367Z,15.10
2022-09-13T22:54:15.366Z,15.10
2022-09-13T22:56:43.798Z,15.10
2022-09-13T22:59:14.626Z,15.10
2022-09-13T23:01:43.137Z,15.10
2022-09-13T23:04:13.190Z,15.10
2022-09-13T23:06:43.757Z,15.00
2022-09-13T23:09:13.983Z,15.00
2022-09-13T23:11:42.528Z,15.00
2022-09-13T23:14:12.514Z,15.00
2022-09-13T23:16:43.357Z,15.00
2022-09-13T23:19:14.851Z,15.00
2022-09-13T23:21:43.743Z,15.00
2022-09-13T23:24:14.485Z,15.00
2022-09-13T23:26:43.243Z,15.00
2022-09-13T23:29:14.799Z,15.00
2022-09-13T23:31:43.706Z,14.90
2022-09-13T23:34:14.321Z,14.90
2022-09-13T23:36:44.155Z,14.90
2022-09-13T23:39:17.400Z,14.90
2022-09-13T23:41:46.628Z,14.80
2022-09-13T23:44:15.206Z,14.80
2022-09-13T23:46:43.459Z,14.80
2022-09-13T23:49:13.012Z,14.70
2022-09-13T23:51:41.425Z,14.70
2022-09-13T23:54:09.753Z,14.60
2022-09-13T23:56:37.841Z,14.60
2022-09-13T23:59:06.744Z,14.60
